Color Magic — LNWC — position and weather

sailwx.info

Track history (hours):
 
Tides and Currents Weather Stations Pressure Air Temp Water Temp Dewpoint Dewpoint Depression Visibility Wind Speed Wind Dir Waves Ship Positions

Color Magic

Last reported at 2020-Aug-07 04:00 UTC. Time now 2020-Aug-07 04:22 UTC.
Position N 58°48' E 010°46'.

Length 224 m; draft 6.9 m.

Type: Ship (hazmat cat A). MMSI: 259222000.

Date/timePositionNaut miles runAvg speedWind from/ knotsBaromVisibWave heightAir tempDewpointWater temp
2020-Aug-07 04:00N 58°48' E 010°46'1021.0
2020-Aug-07 03:31N 58°37' E 010°50'5120.5
2020-Aug-07 01:00N 57°48' E 011°17'3020.2
2020-Aug-06 23:31N 57°19' E 011°34'3819.1
2020-Aug-06 21:31N 56°42' E 011°52'2918.4
2020-Aug-06 19:57N 56°18' E 011°25'6817.0
2020-Aug-06 15:57N 55°11' E 011°04'4217.1
2020-Aug-06 13:31N 54°34' E 010°31'1 0.1
2020-Aug-06 06:01N 54°34' E 010°32'917.4
2020-Aug-06 05:30N 54°40' E 010°43'1817.5
2020-Aug-06 04:30N 54°56' E 010°55'917.6
2020-Aug-06 04:00N 55°04' E 011°01'4218.0
2020-Aug-06 01:39N 55°46' E 010°48'218.0
2020-Aug-06 01:30N 55°48' E 010°49'9617.4
2020-Aug-05 20:00N 57°21' E 011°29'1121.0
2020-Aug-05 19:30N 57°31' E 011°22'4120.7
2020-Aug-05 17:30N 58°10' E 010°57'6919.8
2020-Aug-05 14:00N 59°19' E 010°36'1918.8
2020-Aug-05 13:00N 59°37' E 010°37'816.0
2020-Aug-05 12:30N 59°45' E 010°33'11 3.5
2020-Aug-05 09:29N 59°55' E 010°43'18 6.0
2020-Aug-05 06:31N 59°37' E 010°38'4019.8
2020-Aug-05 04:30N 58°57' E 010°43'8220.5
2020-Aug-05 00:30N 57°38' E 011°23'13617.2
2020-Aug-04 16:36N 55°23' E 011°02'7112.6
2020-Aug-04 10:59N 54°19' E 010°08'0 0.0
2020-Aug-04 09:29N 54°19' E 010°08'0 0.0
2020-Aug-04 08:59N 54°19' E 010°08'0 0.0
2020-Aug-04 08:20N 54°19' E 010°08'3711.2
2020-Aug-04 05:00N 54°48' E 010°49'1817.7
2020-Aug-04 04:00N 55°04' E 011°01'1817.9
2020-Aug-04 03:00N 55°22' E 011°02'16817.7
2020-Aug-03 17:30N 58°10' E 011°01'1919.3
2020-Aug-03 16:30N 58°29' E 010°54'2020.1
2020-Aug-03 15:30N 58°49' E 010°47'4919.8
2020-Aug-03 13:00N 59°38' E 010°37'17 8.2
2020-Aug-03 10:59N 59°55' E 010°43'0 0.0
2020-Aug-03 09:59N 59°55' E 010°43'0 0.0
2020-Aug-03 09:29N 59°55' E 010°43'0 0.0
2020-Aug-03 08:59N 59°55' E 010°43'11 5.8
2020-Aug-03 07:00N 59°44' E 010°35'2818.6
2020-Aug-03 05:30N 59°16' E 010°37'2120.7
2020-Aug-03 04:30N 58°56' E 010°44'2019.7
2020-Aug-03 03:30N 58°36' E 010°51'7020.1
2020-Aug-03 00:00N 57°29' E 011°28'11016.9
2020-Aug-02 17:30N 55°41' E 010°48'2118.4
2020-Aug-02 16:21N 55°22' E 011°02'5017.6
2020-Aug-02 13:30N 54°34' E 010°34'816.6
2020-Aug-02 13:00N 54°30' E 010°22'816.0
2020-Aug-02 12:30N 54°24' E 010°13'6 2.9
2020-Aug-02 10:30N 54°19' E 010°08'0 0.0
2020-Aug-02 10:00N 54°19' E 010°08'13 3.8
2020-Aug-02 06:30N 54°30' E 010°20'2516.7
2020-Aug-02 05:00N 54°49' E 010°49'816.0
2020-Aug-02 04:30N 54°57' E 010°54'816.7
2020-Aug-02 04:00N 55°04' E 011°01'3617.4
2020-Aug-02 01:58N 55°39' E 010°47'1616.6
2020-Aug-02 01:00N 55°54' E 010°55'4718.2
2020-Aug-01 22:26N 56°34' E 011°40'12519.4
2020-Aug-01 16:00N 58°36' E 010°52'4221.1
2020-Aug-01 14:00N 59°17' E 010°36'3815.0
2020-Aug-01 11:30N 59°55' E 010°43'0 0.0
2020-Aug-01 09:30N 59°55' E 010°43'38 9.5
2020-Aug-01 05:30N 59°17' E 010°37'5020.0
2020-Aug-01 03:00N 58°28' E 010°55'1020.9
2020-Aug-01 02:30N 58°18' E 011°01'4120.5
2020-Aug-01 00:30N 57°38' E 011°22'1020.7
2020-Aug-01 00:00N 57°28' E 011°28'10317.1
2020-Jul-31 18:00N 55°48' E 010°48'4317.1
2020-Jul-31 15:30N 55°06' E 011°02'5515.7
2020-Jul-31 12:00N 54°20' E 010°10'1 0.5
2020-Jul-31 09:49N 54°19' E 010°08'14 4.1
2020-Jul-31 06:30N 54°31' E 010°21'917.3
2020-Jul-31 06:00N 54°35' E 010°34'1717.2
2020-Jul-31 05:00N 54°49' E 010°50'1818.0
2020-Jul-31 04:00N 55°06' E 011°02'5217.4
2020-Jul-31 01:00N 55°58' E 011°01'6918.1
2020-Jul-30 21:14N 57°03' E 011°40'1419.9
2020-Jul-30 20:30N 57°17' E 011°32'2020.2
2020-Jul-30 19:30N 57°36' E 011°21'11519.2
2020-Jul-30 13:30N 59°28' E 010°34'27 8.7
2020-Jul-30 10:28N 59°55' E 010°43'0 0.0
2020-Jul-30 08:58N 59°55' E 010°43'0 0.0
2020-Jul-30 08:28N 59°55' E 010°43'2911.7
2020-Jul-30 06:00N 59°26' E 010°34'4020.0
2020-Jul-30 04:00N 58°47' E 010°46'20618.0
2020-Jul-29 16:32N 55°21' E 011°02'117.8
2020-Jul-29 16:29N 55°20' E 011°02'1717.4
2020-Jul-29 15:30N 55°03' E 011°01'1918.5
2020-Jul-29 14:30N 54°46' E 010°48'35 6.9
2020-Jul-29 09:23N 54°19' E 010°08'39 8.9
2020-Jul-29 05:01N 54°50' E 010°50'6817.0
2020-Jul-29 01:00N 55°58' E 011°00'9517.4
2020-Jul-28 19:31N 57°32' E 011°21'5019.9
2020-Jul-28 17:00N 58°20' E 010°52'3819.1
2020-Jul-28 15:00N 58°58' E 010°40'3919.7
2020-Jul-28 13:01N 59°37' E 010°37'1811.7
2020-Jul-28 11:29N 59°55' E 010°43'0 0.0
2020-Jul-28 10:59N 59°55' E 010°43'0 0.0
2020-Jul-28 10:29N 59°55' E 010°43'0 0.0
2020-Jul-28 09:28N 59°55' E 010°43'19 6.4
2020-Jul-28 06:30N 59°36' E 010°38'1918.8
2020-Jul-28 05:30N 59°17' E 010°37'  
Track history (hours):
 
Tides and Currents Weather Stations Pressure Air Temp Water Temp Dewpoint Dewpoint Depression Visibility Wind Speed Wind Dir Waves Ship Positions

Color Magic

Last reported at 2020-Aug-07 04:00 UTC. Time now 2020-Aug-07 04:22 UTC.
Position N 58°48' E 010°46'.

Length 224 m; draft 6.9 m.

Type: Ship (hazmat cat A). MMSI: 259222000.

Date/timePositionNaut miles runAvg speedWind from/ knotsBaromVisibWave heightAir tempDewpointWater temp
2020-Aug-07 04:00N 58°48' E 010°46'1021.0
2020-Aug-07 03:31N 58°37' E 010°50'5120.5
2020-Aug-07 01:00N 57°48' E 011°17'3020.2
2020-Aug-06 23:31N 57°19' E 011°34'3819.1
2020-Aug-06 21:31N 56°42' E 011°52'2918.4
2020-Aug-06 19:57N 56°18' E 011°25'6817.0
2020-Aug-06 15:57N 55°11' E 011°04'4217.1
2020-Aug-06 13:31N 54°34' E 010°31'1 0.1
2020-Aug-06 06:01N 54°34' E 010°32'917.4
2020-Aug-06 05:30N 54°40' E 010°43'1817.5
2020-Aug-06 04:30N 54°56' E 010°55'917.6
2020-Aug-06 04:00N 55°04' E 011°01'4218.0
2020-Aug-06 01:39N 55°46' E 010°48'218.0
2020-Aug-06 01:30N 55°48' E 010°49'9617.4
2020-Aug-05 20:00N 57°21' E 011°29'1121.0
2020-Aug-05 19:30N 57°31' E 011°22'4120.7
2020-Aug-05 17:30N 58°10' E 010°57'6919.8
2020-Aug-05 14:00N 59°19' E 010°36'1918.8
2020-Aug-05 13:00N 59°37' E 010°37'816.0
2020-Aug-05 12:30N 59°45' E 010°33'11 3.5
2020-Aug-05 09:29N 59°55' E 010°43'18 6.0
2020-Aug-05 06:31N 59°37' E 010°38'4019.8
2020-Aug-05 04:30N 58°57' E 010°43'8220.5
2020-Aug-05 00:30N 57°38' E 011°23'13617.2
2020-Aug-04 16:36N 55°23' E 011°02'7112.6
2020-Aug-04 10:59N 54°19' E 010°08'0 0.0
2020-Aug-04 09:29N 54°19' E 010°08'0 0.0
2020-Aug-04 08:59N 54°19' E 010°08'0 0.0
2020-Aug-04 08:20N 54°19' E 010°08'3711.2
2020-Aug-04 05:00N 54°48' E 010°49'1817.7
2020-Aug-04 04:00N 55°04' E 011°01'1817.9
2020-Aug-04 03:00N 55°22' E 011°02'16817.7
2020-Aug-03 17:30N 58°10' E 011°01'1919.3
2020-Aug-03 16:30N 58°29' E 010°54'2020.1
2020-Aug-03 15:30N 58°49' E 010°47'4919.8
2020-Aug-03 13:00N 59°38' E 010°37'17 8.2
2020-Aug-03 10:59N 59°55' E 010°43'0 0.0
2020-Aug-03 09:59N 59°55' E 010°43'0 0.0
2020-Aug-03 09:29N 59°55' E 010°43'0 0.0
2020-Aug-03 08:59N 59°55' E 010°43'11 5.8
2020-Aug-03 07:00N 59°44' E 010°35'2818.6
2020-Aug-03 05:30N 59°16' E 010°37'2120.7
2020-Aug-03 04:30N 58°56' E 010°44'2019.7
2020-Aug-03 03:30N 58°36' E 010°51'7020.1
2020-Aug-03 00:00N 57°29' E 011°28'11016.9
2020-Aug-02 17:30N 55°41' E 010°48'2118.4
2020-Aug-02 16:21N 55°22' E 011°02'5017.6
2020-Aug-02 13:30N 54°34' E 010°34'816.6
2020-Aug-02 13:00N 54°30' E 010°22'816.0
2020-Aug-02 12:30N 54°24' E 010°13'6 2.9
2020-Aug-02 10:30N 54°19' E 010°08'0 0.0
2020-Aug-02 10:00N 54°19' E 010°08'13 3.8
2020-Aug-02 06:30N 54°30' E 010°20'2516.7
2020-Aug-02 05:00N 54°49' E 010°49'816.0
2020-Aug-02 04:30N 54°57' E 010°54'816.7
2020-Aug-02 04:00N 55°04' E 011°01'3617.4
2020-Aug-02 01:58N 55°39' E 010°47'1616.6
2020-Aug-02 01:00N 55°54' E 010°55'4718.2
2020-Aug-01 22:26N 56°34' E 011°40'12519.4
2020-Aug-01 16:00N 58°36' E 010°52'4221.1
2020-Aug-01 14:00N 59°17' E 010°36'3815.0
2020-Aug-01 11:30N 59°55' E 010°43'0 0.0
2020-Aug-01 09:30N 59°55' E 010°43'38 9.5
2020-Aug-01 05:30N 59°17' E 010°37'5020.0
2020-Aug-01 03:00N 58°28' E 010°55'1020.9
2020-Aug-01 02:30N 58°18' E 011°01'4120.5
2020-Aug-01 00:30N 57°38' E 011°22'1020.7
2020-Aug-01 00:00N 57°28' E 011°28'10317.1
2020-Jul-31 18:00N 55°48' E 010°48'4317.1
2020-Jul-31 15:30N 55°06' E 011°02'5515.7
2020-Jul-31 12:00N 54°20' E 010°10'1 0.5
2020-Jul-31 09:49N 54°19' E 010°08'14 4.1
2020-Jul-31 06:30N 54°31' E 010°21'917.3
2020-Jul-31 06:00N 54°35' E 010°34'1717.2
2020-Jul-31 05:00N 54°49' E 010°50'1818.0
2020-Jul-31 04:00N 55°06' E 011°02'5217.4
2020-Jul-31 01:00N 55°58' E 011°01'6918.1
2020-Jul-30 21:14N 57°03' E 011°40'1419.9
2020-Jul-30 20:30N 57°17' E 011°32'2020.2
2020-Jul-30 19:30N 57°36' E 011°21'11519.2
2020-Jul-30 13:30N 59°28' E 010°34'27 8.7
2020-Jul-30 10:28N 59°55' E 010°43'0 0.0
2020-Jul-30 08:58N 59°55' E 010°43'0 0.0
2020-Jul-30 08:28N 59°55' E 010°43'2911.7
2020-Jul-30 06:00N 59°26' E 010°34'4020.0
2020-Jul-30 04:00N 58°47' E 010°46'20618.0
2020-Jul-29 16:32N 55°21' E 011°02'117.8
2020-Jul-29 16:29N 55°20' E 011°02'1717.4
2020-Jul-29 15:30N 55°03' E 011°01'1918.5
2020-Jul-29 14:30N 54°46' E 010°48'35 6.9
2020-Jul-29 09:23N 54°19' E 010°08'39 8.9
2020-Jul-29 05:01N 54°50' E 010°50'6817.0
2020-Jul-29 01:00N 55°58' E 011°00'9517.4
2020-Jul-28 19:31N 57°32' E 011°21'5019.9
2020-Jul-28 17:00N 58°20' E 010°52'3819.1
2020-Jul-28 15:00N 58°58' E 010°40'3919.7
2020-Jul-28 13:01N 59°37' E 010°37'1811.7
2020-Jul-28 11:29N 59°55' E 010°43'0 0.0
2020-Jul-28 10:59N 59°55' E 010°43'0 0.0
2020-Jul-28 10:29N 59°55' E 010°43'0 0.0
2020-Jul-28 09:28N 59°55' E 010°43'19 6.4
2020-Jul-28 06:30N 59°36' E 010°38'1918.8
2020-Jul-28 05:30N 59°17' E 010°37'  

Dump ship's entire track history